Stephen Scott — WCW8842 — position and weather

sailwx.info

Track history (hours):
 
Tides and Currents Weather Stations Pressure Air Temp Water Temp Dewpoint Dewpoint Depression Visibility Wind Speed Wind Dir Waves Ship Positions

Stephen Scott

Owner: H A REINAUER INC, STATEN ISLAND, NY. More information available from US FCC via Universal Licensing System and Coast Guard Vessel Documentation Center.

Last reported at 2015-Jul-06 00:21 UTC. Time now 2015-Jul-06 01:00 UTC.
Position N 40°03' W 073°56'.

Length 30 m; draft 2.5 m.

Type: Towing. MMSI: 366245490.

Date/timePositionNaut miles runAvg speedWind from/ knotsBaromVisibWave heightAir tempDewpointWater temp
2015-Jul-06 00:21N 40°03' W 073°56'25 6.4
2015-Jul-05 20:27N 40°28' W 073°54'7 7.6
2015-Jul-05 19:33N 40°32' W 074°01'4 3.8
2015-Jul-05 18:33N 40°36' W 074°02'6 6.3
2015-Jul-05 17:33N 40°40' W 074°08'3 2.5
2015-Jul-05 16:33N 40°42' W 074°07'4 4.0
2015-Jul-05 15:33N 40°39' W 074°09'1 0.9
2015-Jul-05 14:33N 40°38' W 074°08'0 0.0
2015-Jul-05 13:33N 40°38' W 074°08'0 0.0
2015-Jul-05 12:33N 40°38' W 074°08'0 0.0
2015-Jul-05 11:33N 40°38' W 074°08'0 0.0
2015-Jul-05 10:33N 40°38' W 074°08'0 0.0
2015-Jul-05 09:33N 40°38' W 074°08'0 0.0
2015-Jul-05 08:33N 40°38' W 074°08'0 0.0
2015-Jul-05 07:33N 40°38' W 074°08'0 0.0
2015-Jul-05 06:33N 40°38' W 074°08'0 0.0
2015-Jul-05 05:34N 40°38' W 074°08'0 0.0
2015-Jul-05 04:34N 40°38' W 074°08'0 0.0
2015-Jul-05 03:33N 40°38' W 074°08'0 0.0
2015-Jul-05 02:33N 40°38' W 074°08'0 0.0
2015-Jul-05 01:33N 40°38' W 074°08'1 0.9
2015-Jul-05 00:33N 40°39' W 074°09'4 3.9
2015-Jul-04 23:33N 40°42' W 074°07'4 3.9
2015-Jul-04 22:33N 40°39' W 074°09'6 6.2
2015-Jul-04 21:33N 40°40' W 074°01'0 0.0
2015-Jul-04 20:33N 40°40' W 074°01'0 0.0
2015-Jul-04 19:33N 40°40' W 074°01'0 0.0
2015-Jul-04 18:33N 40°40' W 074°01'0 0.0
2015-Jul-04 17:33N 40°40' W 074°01'0 0.0
2015-Jul-04 16:33N 40°40' W 074°01'0 0.0
2015-Jul-04 15:33N 40°40' W 074°01'0 0.0
2015-Jul-04 14:34N 40°40' W 074°01'0 0.0
2015-Jul-04 13:33N 40°40' W 074°01'0 0.0
2015-Jul-04 12:33N 40°40' W 074°01'0 0.0
2015-Jul-04 11:33N 40°40' W 074°01'0 0.0
2015-Jul-04 10:33N 40°40' W 074°01'0 0.0
2015-Jul-04 09:33N 40°40' W 074°01'0 0.0
2015-Jul-04 08:33N 40°40' W 074°01'0 0.0
2015-Jul-04 07:33N 40°40' W 074°01'0 0.0
2015-Jul-04 06:33N 40°40' W 074°01'0 0.0
2015-Jul-04 05:33N 40°40' W 074°01'0 0.0
2015-Jul-04 04:33N 40°40' W 074°01'9 8.8
2015-Jul-04 03:33N 40°38' W 074°12'0 0.5
2015-Jul-04 02:33N 40°38' W 074°12'0 0.0
2015-Jul-04 01:33N 40°38' W 074°12'0 0.2
2015-Jul-04 00:33N 40°38' W 074°12'4 4.4
2015-Jul-03 23:33N 40°39' W 074°07'0 0.0
2015-Jul-03 22:33N 40°39' W 074°07'1 1.0
2015-Jul-03 21:33N 40°38' W 074°08'0 0.0
2015-Jul-03 20:33N 40°38' W 074°08'0 0.0
2015-Jul-03 19:34N 40°38' W 074°08'0 0.0
2015-Jul-03 18:33N 40°38' W 074°08'0 0.0
2015-Jul-03 17:33N 40°38' W 074°08'3 3.1
2015-Jul-03 16:33N 40°40' W 074°04'3 3.1
2015-Jul-03 15:33N 40°38' W 074°08'0 0.0
2015-Jul-03 14:33N 40°38' W 074°08'0 0.0
2015-Jul-03 13:33N 40°38' W 074°08'0 0.0
2015-Jul-03 12:33N 40°38' W 074°08'0 0.0
2015-Jul-03 11:33N 40°38' W 074°08'0 0.0
2015-Jul-03 10:33N 40°38' W 074°08'4 4.3
2015-Jul-03 09:33N 40°40' W 074°02'0 0.0
2015-Jul-03 08:33N 40°40' W 074°02'0 0.0
2015-Jul-03 07:33N 40°40' W 074°02'0 0.0
2015-Jul-03 06:33N 40°40' W 074°02'0 0.0
2015-Jul-03 05:33N 40°40' W 074°02'0 0.0
2015-Jul-03 04:33N 40°40' W 074°03'0 0.2
2015-Jul-03 03:33N 40°40' W 074°02'0 0.0
2015-Jul-03 02:33N 40°40' W 074°02'1 1.4
2015-Jul-03 01:33N 40°39' W 074°03'2 2.0
2015-Jul-03 00:33N 40°40' W 074°01'0 0.0
2015-Jul-02 23:33N 40°40' W 074°01'0 0.0
2015-Jul-02 22:33N 40°40' W 074°01'0 0.0
2015-Jul-02 21:33N 40°40' W 074°01'0 0.0
2015-Jul-02 20:33N 40°40' W 074°01'0 0.0
2015-Jul-02 19:33N 40°40' W 074°01'2 2.0
2015-Jul-02 18:33N 40°39' W 074°03'2 2.0
2015-Jul-02 17:33N 40°40' W 074°01'0 0.0
2015-Jul-02 16:33N 40°40' W 074°01'0 0.0
2015-Jul-02 15:33N 40°40' W 074°01'0 0.0
2015-Jul-02 14:33N 40°40' W 074°01'5 4.7
2015-Jul-02 13:33N 40°39' W 074°07'1 0.8
2015-Jul-02 12:33N 40°39' W 074°06'4 4.0
2015-Jul-02 11:33N 40°40' W 074°01'0 0.0
2015-Jul-02 10:33N 40°40' W 074°01'0 0.0
2015-Jul-02 09:33N 40°40' W 074°01'0 0.0
2015-Jul-02 08:33N 40°40' W 074°01'0 0.0
2015-Jul-02 07:33N 40°40' W 074°01'0 0.0
2015-Jul-02 06:33N 40°40' W 074°01'0 0.0
2015-Jul-02 05:33N 40°40' W 074°01'0 0.0
2015-Jul-02 04:33N 40°40' W 074°01'0 0.2
2015-Jul-02 03:33N 40°40' W 074°01'0 0.3
2015-Jul-02 02:33N 40°40' W 074°01'0 0.0
2015-Jul-02 01:34N 40°40' W 074°01'0 0.0
2015-Jul-02 00:33N 40°40' W 074°01'0 0.0
2015-Jul-01 23:33N 40°40' W 074°01'0 0.0
2015-Jul-01 22:33N 40°40' W 074°01'0 0.0
2015-Jul-01 21:33N 40°40' W 074°01'0 0.0
2015-Jul-01 20:33N 40°40' W 074°01'0 0.0
2015-Jul-01 19:33N 40°40' W 074°01'0 0.0
2015-Jul-01 18:33N 40°40' W 074°01'0 0.0
2015-Jul-01 17:33N 40°40' W 074°01'0 0.0
2015-Jul-01 16:33N 40°40' W 074°01'0 0.0
2015-Jul-01 15:33N 40°40' W 074°01'0 0.0
2015-Jul-01 14:33N 40°40' W 074°01'0 0.0
2015-Jul-01 13:33N 40°40' W 074°01'0 0.0
2015-Jul-01 12:33N 40°40' W 074°01'0 0.0
2015-Jul-01 11:33N 40°40' W 074°01'0 0.0
2015-Jul-01 10:34N 40°40' W 074°01'0 0.0
2015-Jul-01 09:33N 40°40' W 074°01'0 0.0
2015-Jul-01 08:33N 40°40' W 074°01'0 0.0
2015-Jul-01 07:33N 40°40' W 074°01'0 0.1
2015-Jul-01 06:33N 40°40' W 074°01'0 0.1
2015-Jul-01 05:33N 40°40' W 074°01'1 0.6
2015-Jul-01 04:33N 40°40' W 074°02'1 0.6
2015-Jul-01 03:33N 40°40' W 074°01'0 0.0
2015-Jul-01 02:33N 40°40' W 074°01'0 0.5
2015-Jul-01 01:34N 40°40' W 074°01'8 8.3
2015-Jul-01 00:33N 40°38' W 074°12'2 1.7
2015-Jun-30 23:33N 40°36' W 074°12'1 0.7
2015-Jun-30 22:33N 40°36' W 074°12'2 2.2
2015-Jun-30 21:33N 40°38' W 074°12'3 3.4
2015-Jun-30 20:33N 40°38' W 074°08'0 0.0
2015-Jun-30 19:34N 40°38' W 074°08'0 0.0
2015-Jun-30 18:34N 40°38' W 074°08'0 0.0
2015-Jun-30 17:33N 40°38' W 074°08'0 0.0
2015-Jun-30 16:33N 40°38' W 074°08'0 0.0
2015-Jun-30 15:33N 40°38' W 074°08'0 0.0
2015-Jun-30 14:33N 40°38' W 074°08'0 0.0
2015-Jun-30 13:34N 40°38' W 074°08'0 0.0
2015-Jun-30 12:31N 40°38' W 074°08'0 0.1
2015-Jun-30 11:34N 40°38' W 074°08'4 4.1
2015-Jun-30 10:33N 40°36' W 074°12'3 3.2
2015-Jun-30 09:33N 40°39' W 074°10'7 6.7
2015-Jun-30 08:34N 40°40' W 074°01'0 0.1
2015-Jun-30 07:33N 40°40' W 074°01'0 0.1
2015-Jun-30 06:33N 40°40' W 074°01'0 0.0
2015-Jun-30 05:34N 40°40' W 074°01'0 0.0
2015-Jun-30 04:34N 40°40' W 074°01'0 0.0
2015-Jun-30 03:33N 40°40' W 074°01'0 0.0
2015-Jun-30 02:34N 40°40' W 074°01'0 0.0
2015-Jun-30 01:34N 40°40' W 074°01'0 0.0
2015-Jun-30 00:34N 40°40' W 074°01'0 0.0
2015-Jun-29 23:34N 40°40' W 074°01'0 0.0
2015-Jun-29 22:34N 40°40' W 074°01'0 0.0
2015-Jun-29 21:33N 40°40' W 074°01'0 0.0
2015-Jun-29 20:34N 40°40' W 074°01'0 0.0
2015-Jun-29 19:34N 40°40' W 074°01'0 0.0
2015-Jun-29 18:34N 40°40' W 074°01'6 6.3
2015-Jun-29 17:34N 40°39' W 074°09'2 2.2
2015-Jun-29 16:33N 40°39' W 074°06'4 4.2
2015-Jun-29 15:34N 40°40' W 074°01'0 0.0
2015-Jun-29 14:34N 40°40' W 074°01'0 0.0
2015-Jun-29 13:34N 40°40' W 074°01'0 0.0
2015-Jun-29 12:34N 40°40' W 074°01'0 0.0
2015-Jun-29 11:34N 40°40' W 074°01'0 0.0
2015-Jun-29 10:34N 40°40' W 074°01'0 0.0
2015-Jun-29 09:34N 40°40' W 074°01'0 0.0
2015-Jun-29 08:34N 40°40' W 074°01'0 0.0
2015-Jun-29 07:34N 40°40' W 074°01'0 0.0
2015-Jun-29 06:34N 40°40' W 074°01'0 0.0
2015-Jun-29 05:33N 40°40' W 074°01'0 0.0
2015-Jun-29 04:33N 40°40' W 074°01'0 0.0
2015-Jun-29 03:33N 40°40' W 074°01'0 0.0
2015-Jun-29 02:34N 40°40' W 074°01'0 0.0
2015-Jun-29 01:34N 40°40' W 074°01'0 0.0
2015-Jun-29 00:34N 40°40' W 074°01'0 0.0
2015-Jun-28 23:34N 40°40' W 074°01'0 0.0
2015-Jun-28 22:34N 40°40' W 074°01'0 0.0
2015-Jun-28 21:34N 40°40' W 074°01'0 0.0
2015-Jun-28 20:33N 40°40' W 074°01'0 0.0
2015-Jun-28 19:34N 40°40' W 074°01'0 0.0
2015-Jun-28 18:33N 40°40' W 074°01'0 0.0
2015-Jun-28 17:34N 40°40' W 074°01'1 0.8
2015-Jun-28 16:34N 40°40' W 074°02'4 3.8
2015-Jun-28 15:34N 40°39' W 074°07'4 3.6
2015-Jun-28 14:34N 40°40' W 074°03'1 1.2
2015-Jun-28 13:34N 40°40' W 074°01'0 0.0
2015-Jun-28 12:33N 40°40' W 074°01'0 0.0
2015-Jun-28 11:34N 40°40' W 074°01'0 0.0
2015-Jun-28 10:33N 40°40' W 074°01'0 0.0
2015-Jun-28 09:33N 40°40' W 074°01'0 0.0
2015-Jun-28 08:33N 40°40' W 074°01'0 0.0
2015-Jun-28 07:34N 40°40' W 074°01'0 0.0
2015-Jun-28 06:34N 40°40' W 074°01'0 0.0
2015-Jun-28 05:33N 40°40' W 074°01'0 0.0
2015-Jun-28 04:34N 40°40' W 074°01'0 0.0
2015-Jun-28 03:33N 40°40' W 074°01'0 0.0
2015-Jun-28 02:33N 40°40' W 074°01'0 0.0
2015-Jun-28 01:33N 40°40' W 074°01'0 0.0
2015-Jun-28 00:34N 40°40' W 074°01'0 0.0
2015-Jun-27 23:34N 40°40' W 074°01'0 0.0
2015-Jun-27 22:34N 40°40' W 074°01'0 0.0
2015-Jun-27 21:34N 40°40' W 074°01'0 0.0
2015-Jun-27 20:34N 40°40' W 074°01'0 0.0
2015-Jun-27 19:33N 40°40' W 074°01'0 0.0
2015-Jun-27 18:34N 40°40' W 074°01'0 0.0
2015-Jun-27 17:34N 40°40' W 074°01'0 0.0
2015-Jun-27 16:34N 40°40' W 074°01'0 0.0
2015-Jun-27 15:34N 40°40' W 074°01'0 0.1
2015-Jun-27 14:34N 40°40' W 074°01'0 0.0
2015-Jun-27 13:33N 40°40' W 074°01'0 0.0
2015-Jun-27 12:34N 40°40' W 074°01'0 0.1
2015-Jun-27 11:34N 40°40' W 074°01'0 0.0
2015-Jun-27 10:33N 40°40' W 074°01'0 0.0
2015-Jun-27 09:34N 40°40' W 074°01'0 0.0
2015-Jun-27 08:33N 40°40' W 074°01'0 0.0
2015-Jun-27 07:33N 40°40' W 074°01'0 0.0
2015-Jun-27 06:33N 40°40' W 074°01'0 0.0
2015-Jun-27 05:33N 40°40' W 074°01'0 0.0
2015-Jun-27 04:34N 40°40' W 074°01'0 0.0
2015-Jun-27 03:34N 40°40' W 074°01'0 0.0
2015-Jun-27 02:34N 40°40' W 074°01'0 0.0
2015-Jun-27 01:34N 40°40' W 074°01'0 0.0
2015-Jun-27 00:34N 40°40' W 074°01'0 0.0
2015-Jun-26 23:34N 40°40' W 074°01'0 0.0
2015-Jun-26 22:34N 40°40' W 074°01'0 0.0
2015-Jun-26 21:34N 40°40' W 074°01'5 5.1
2015-Jun-26 20:33N 40°39' W 074°07'0 0.2
2015-Jun-26 19:34N 40°38' W 074°08'0 0.0
2015-Jun-26 18:34N 40°38' W 074°08'0 0.0
2015-Jun-26 17:33N 40°38' W 074°08'0 0.0
2015-Jun-26 16:33N 40°38' W 074°08'0 0.0
2015-Jun-26 15:33N 40°38' W 074°08'1 0.7
2015-Jun-26 14:34N 40°39' W 074°07'1 0.7
2015-Jun-26 13:33N 40°38' W 074°08'0 0.0
2015-Jun-26 12:32N 40°38' W 074°08'0 0.0
2015-Jun-26 11:19N 40°38' W 074°08'0 0.0
2015-Jun-26 10:33N 40°38' W 074°08'0 0.0
2015-Jun-26 09:33N 40°38' W 074°08'0 0.0
2015-Jun-26 08:22N 40°38' W 074°08'0 0.0
2015-Jun-26 07:20N 40°38' W 074°08'0 0.0
2015-Jun-26 06:27N 40°38' W 074°08'0 0.0
2015-Jun-26 05:19N 40°38' W 074°08'0 0.0
2015-Jun-26 02:34N 40°38' W 074°08'5 5.3
2015-Jun-26 01:34N 40°40' W 074°01'0 0.0
2015-Jun-26 00:34N 40°40' W 074°01'  
Track history (hours):
 
Tides and Currents Weather Stations Pressure Air Temp Water Temp Dewpoint Dewpoint Depression Visibility Wind Speed Wind Dir Waves Ship Positions

Stephen Scott

Owner: H A REINAUER INC, STATEN ISLAND, NY. More information available from US FCC via Universal Licensing System and Coast Guard Vessel Documentation Center.

Last reported at 2015-Jul-06 00:21 UTC. Time now 2015-Jul-06 01:00 UTC.
Position N 40°03' W 073°56'.

Length 30 m; draft 2.5 m.

Type: Towing. MMSI: 366245490.

Date/timePositionNaut miles runAvg speedWind from/ knotsBaromVisibWave heightAir tempDewpointWater temp
2015-Jul-06 00:21N 40°03' W 073°56'25 6.4
2015-Jul-05 20:27N 40°28' W 073°54'7 7.6
2015-Jul-05 19:33N 40°32' W 074°01'4 3.8
2015-Jul-05 18:33N 40°36' W 074°02'6 6.3
2015-Jul-05 17:33N 40°40' W 074°08'3 2.5
2015-Jul-05 16:33N 40°42' W 074°07'4 4.0
2015-Jul-05 15:33N 40°39' W 074°09'1 0.9
2015-Jul-05 14:33N 40°38' W 074°08'0 0.0
2015-Jul-05 13:33N 40°38' W 074°08'0 0.0
2015-Jul-05 12:33N 40°38' W 074°08'0 0.0
2015-Jul-05 11:33N 40°38' W 074°08'0 0.0
2015-Jul-05 10:33N 40°38' W 074°08'0 0.0
2015-Jul-05 09:33N 40°38' W 074°08'0 0.0
2015-Jul-05 08:33N 40°38' W 074°08'0 0.0
2015-Jul-05 07:33N 40°38' W 074°08'0 0.0
2015-Jul-05 06:33N 40°38' W 074°08'0 0.0
2015-Jul-05 05:34N 40°38' W 074°08'0 0.0
2015-Jul-05 04:34N 40°38' W 074°08'0 0.0
2015-Jul-05 03:33N 40°38' W 074°08'0 0.0
2015-Jul-05 02:33N 40°38' W 074°08'0 0.0
2015-Jul-05 01:33N 40°38' W 074°08'1 0.9
2015-Jul-05 00:33N 40°39' W 074°09'4 3.9
2015-Jul-04 23:33N 40°42' W 074°07'4 3.9
2015-Jul-04 22:33N 40°39' W 074°09'6 6.2
2015-Jul-04 21:33N 40°40' W 074°01'0 0.0
2015-Jul-04 20:33N 40°40' W 074°01'0 0.0
2015-Jul-04 19:33N 40°40' W 074°01'0 0.0
2015-Jul-04 18:33N 40°40' W 074°01'0 0.0
2015-Jul-04 17:33N 40°40' W 074°01'0 0.0
2015-Jul-04 16:33N 40°40' W 074°01'0 0.0
2015-Jul-04 15:33N 40°40' W 074°01'0 0.0
2015-Jul-04 14:34N 40°40' W 074°01'0 0.0
2015-Jul-04 13:33N 40°40' W 074°01'0 0.0
2015-Jul-04 12:33N 40°40' W 074°01'0 0.0
2015-Jul-04 11:33N 40°40' W 074°01'0 0.0
2015-Jul-04 10:33N 40°40' W 074°01'0 0.0
2015-Jul-04 09:33N 40°40' W 074°01'0 0.0
2015-Jul-04 08:33N 40°40' W 074°01'0 0.0
2015-Jul-04 07:33N 40°40' W 074°01'0 0.0
2015-Jul-04 06:33N 40°40' W 074°01'0 0.0
2015-Jul-04 05:33N 40°40' W 074°01'0 0.0
2015-Jul-04 04:33N 40°40' W 074°01'9 8.8
2015-Jul-04 03:33N 40°38' W 074°12'0 0.5
2015-Jul-04 02:33N 40°38' W 074°12'0 0.0
2015-Jul-04 01:33N 40°38' W 074°12'0 0.2
2015-Jul-04 00:33N 40°38' W 074°12'4 4.4
2015-Jul-03 23:33N 40°39' W 074°07'0 0.0
2015-Jul-03 22:33N 40°39' W 074°07'1 1.0
2015-Jul-03 21:33N 40°38' W 074°08'0 0.0
2015-Jul-03 20:33N 40°38' W 074°08'0 0.0
2015-Jul-03 19:34N 40°38' W 074°08'0 0.0
2015-Jul-03 18:33N 40°38' W 074°08'0 0.0
2015-Jul-03 17:33N 40°38' W 074°08'3 3.1
2015-Jul-03 16:33N 40°40' W 074°04'3 3.1
2015-Jul-03 15:33N 40°38' W 074°08'0 0.0
2015-Jul-03 14:33N 40°38' W 074°08'0 0.0
2015-Jul-03 13:33N 40°38' W 074°08'0 0.0
2015-Jul-03 12:33N 40°38' W 074°08'0 0.0
2015-Jul-03 11:33N 40°38' W 074°08'0 0.0
2015-Jul-03 10:33N 40°38' W 074°08'4 4.3
2015-Jul-03 09:33N 40°40' W 074°02'0 0.0
2015-Jul-03 08:33N 40°40' W 074°02'0 0.0
2015-Jul-03 07:33N 40°40' W 074°02'0 0.0
2015-Jul-03 06:33N 40°40' W 074°02'0 0.0
2015-Jul-03 05:33N 40°40' W 074°02'0 0.0
2015-Jul-03 04:33N 40°40' W 074°03'0 0.2
2015-Jul-03 03:33N 40°40' W 074°02'0 0.0
2015-Jul-03 02:33N 40°40' W 074°02'1 1.4
2015-Jul-03 01:33N 40°39' W 074°03'2 2.0
2015-Jul-03 00:33N 40°40' W 074°01'0 0.0
2015-Jul-02 23:33N 40°40' W 074°01'0 0.0
2015-Jul-02 22:33N 40°40' W 074°01'0 0.0
2015-Jul-02 21:33N 40°40' W 074°01'0 0.0
2015-Jul-02 20:33N 40°40' W 074°01'0 0.0
2015-Jul-02 19:33N 40°40' W 074°01'2 2.0
2015-Jul-02 18:33N 40°39' W 074°03'2 2.0
2015-Jul-02 17:33N 40°40' W 074°01'0 0.0
2015-Jul-02 16:33N 40°40' W 074°01'0 0.0
2015-Jul-02 15:33N 40°40' W 074°01'0 0.0
2015-Jul-02 14:33N 40°40' W 074°01'5 4.7
2015-Jul-02 13:33N 40°39' W 074°07'1 0.8
2015-Jul-02 12:33N 40°39' W 074°06'4 4.0
2015-Jul-02 11:33N 40°40' W 074°01'0 0.0
2015-Jul-02 10:33N 40°40' W 074°01'0 0.0
2015-Jul-02 09:33N 40°40' W 074°01'0 0.0
2015-Jul-02 08:33N 40°40' W 074°01'0 0.0
2015-Jul-02 07:33N 40°40' W 074°01'0 0.0
2015-Jul-02 06:33N 40°40' W 074°01'0 0.0
2015-Jul-02 05:33N 40°40' W 074°01'0 0.0
2015-Jul-02 04:33N 40°40' W 074°01'0 0.2
2015-Jul-02 03:33N 40°40' W 074°01'0 0.3
2015-Jul-02 02:33N 40°40' W 074°01'0 0.0
2015-Jul-02 01:34N 40°40' W 074°01'0 0.0
2015-Jul-02 00:33N 40°40' W 074°01'0 0.0
2015-Jul-01 23:33N 40°40' W 074°01'0 0.0
2015-Jul-01 22:33N 40°40' W 074°01'0 0.0
2015-Jul-01 21:33N 40°40' W 074°01'0 0.0
2015-Jul-01 20:33N 40°40' W 074°01'0 0.0
2015-Jul-01 19:33N 40°40' W 074°01'0 0.0
2015-Jul-01 18:33N 40°40' W 074°01'0 0.0
2015-Jul-01 17:33N 40°40' W 074°01'0 0.0
2015-Jul-01 16:33N 40°40' W 074°01'0 0.0
2015-Jul-01 15:33N 40°40' W 074°01'0 0.0
2015-Jul-01 14:33N 40°40' W 074°01'0 0.0
2015-Jul-01 13:33N 40°40' W 074°01'0 0.0
2015-Jul-01 12:33N 40°40' W 074°01'0 0.0
2015-Jul-01 11:33N 40°40' W 074°01'0 0.0
2015-Jul-01 10:34N 40°40' W 074°01'0 0.0
2015-Jul-01 09:33N 40°40' W 074°01'0 0.0
2015-Jul-01 08:33N 40°40' W 074°01'0 0.0
2015-Jul-01 07:33N 40°40' W 074°01'0 0.1
2015-Jul-01 06:33N 40°40' W 074°01'0 0.1
2015-Jul-01 05:33N 40°40' W 074°01'1 0.6
2015-Jul-01 04:33N 40°40' W 074°02'1 0.6
2015-Jul-01 03:33N 40°40' W 074°01'0 0.0
2015-Jul-01 02:33N 40°40' W 074°01'0 0.5
2015-Jul-01 01:34N 40°40' W 074°01'8 8.3
2015-Jul-01 00:33N 40°38' W 074°12'2 1.7
2015-Jun-30 23:33N 40°36' W 074°12'1 0.7
2015-Jun-30 22:33N 40°36' W 074°12'2 2.2
2015-Jun-30 21:33N 40°38' W 074°12'3 3.4
2015-Jun-30 20:33N 40°38' W 074°08'0 0.0
2015-Jun-30 19:34N 40°38' W 074°08'0 0.0
2015-Jun-30 18:34N 40°38' W 074°08'0 0.0
2015-Jun-30 17:33N 40°38' W 074°08'0 0.0
2015-Jun-30 16:33N 40°38' W 074°08'0 0.0
2015-Jun-30 15:33N 40°38' W 074°08'0 0.0
2015-Jun-30 14:33N 40°38' W 074°08'0 0.0
2015-Jun-30 13:34N 40°38' W 074°08'0 0.0
2015-Jun-30 12:31N 40°38' W 074°08'0 0.1
2015-Jun-30 11:34N 40°38' W 074°08'4 4.1
2015-Jun-30 10:33N 40°36' W 074°12'3 3.2
2015-Jun-30 09:33N 40°39' W 074°10'7 6.7
2015-Jun-30 08:34N 40°40' W 074°01'0 0.1
2015-Jun-30 07:33N 40°40' W 074°01'0 0.1
2015-Jun-30 06:33N 40°40' W 074°01'0 0.0
2015-Jun-30 05:34N 40°40' W 074°01'0 0.0
2015-Jun-30 04:34N 40°40' W 074°01'0 0.0
2015-Jun-30 03:33N 40°40' W 074°01'0 0.0
2015-Jun-30 02:34N 40°40' W 074°01'0 0.0
2015-Jun-30 01:34N 40°40' W 074°01'0 0.0
2015-Jun-30 00:34N 40°40' W 074°01'0 0.0
2015-Jun-29 23:34N 40°40' W 074°01'0 0.0
2015-Jun-29 22:34N 40°40' W 074°01'0 0.0
2015-Jun-29 21:33N 40°40' W 074°01'0 0.0
2015-Jun-29 20:34N 40°40' W 074°01'0 0.0
2015-Jun-29 19:34N 40°40' W 074°01'0 0.0
2015-Jun-29 18:34N 40°40' W 074°01'6 6.3
2015-Jun-29 17:34N 40°39' W 074°09'2 2.2
2015-Jun-29 16:33N 40°39' W 074°06'4 4.2
2015-Jun-29 15:34N 40°40' W 074°01'0 0.0
2015-Jun-29 14:34N 40°40' W 074°01'0 0.0
2015-Jun-29 13:34N 40°40' W 074°01'0 0.0
2015-Jun-29 12:34N 40°40' W 074°01'0 0.0
2015-Jun-29 11:34N 40°40' W 074°01'0 0.0
2015-Jun-29 10:34N 40°40' W 074°01'0 0.0
2015-Jun-29 09:34N 40°40' W 074°01'0 0.0
2015-Jun-29 08:34N 40°40' W 074°01'0 0.0
2015-Jun-29 07:34N 40°40' W 074°01'0 0.0
2015-Jun-29 06:34N 40°40' W 074°01'0 0.0
2015-Jun-29 05:33N 40°40' W 074°01'0 0.0
2015-Jun-29 04:33N 40°40' W 074°01'0 0.0
2015-Jun-29 03:33N 40°40' W 074°01'0 0.0
2015-Jun-29 02:34N 40°40' W 074°01'0 0.0
2015-Jun-29 01:34N 40°40' W 074°01'0 0.0
2015-Jun-29 00:34N 40°40' W 074°01'0 0.0
2015-Jun-28 23:34N 40°40' W 074°01'0 0.0
2015-Jun-28 22:34N 40°40' W 074°01'0 0.0
2015-Jun-28 21:34N 40°40' W 074°01'0 0.0
2015-Jun-28 20:33N 40°40' W 074°01'0 0.0
2015-Jun-28 19:34N 40°40' W 074°01'0 0.0
2015-Jun-28 18:33N 40°40' W 074°01'0 0.0
2015-Jun-28 17:34N 40°40' W 074°01'1 0.8
2015-Jun-28 16:34N 40°40' W 074°02'4 3.8
2015-Jun-28 15:34N 40°39' W 074°07'4 3.6
2015-Jun-28 14:34N 40°40' W 074°03'1 1.2
2015-Jun-28 13:34N 40°40' W 074°01'0 0.0
2015-Jun-28 12:33N 40°40' W 074°01'0 0.0
2015-Jun-28 11:34N 40°40' W 074°01'0 0.0
2015-Jun-28 10:33N 40°40' W 074°01'0 0.0
2015-Jun-28 09:33N 40°40' W 074°01'0 0.0
2015-Jun-28 08:33N 40°40' W 074°01'0 0.0
2015-Jun-28 07:34N 40°40' W 074°01'0 0.0
2015-Jun-28 06:34N 40°40' W 074°01'0 0.0
2015-Jun-28 05:33N 40°40' W 074°01'0 0.0
2015-Jun-28 04:34N 40°40' W 074°01'0 0.0
2015-Jun-28 03:33N 40°40' W 074°01'0 0.0
2015-Jun-28 02:33N 40°40' W 074°01'0 0.0
2015-Jun-28 01:33N 40°40' W 074°01'0 0.0
2015-Jun-28 00:34N 40°40' W 074°01'0 0.0
2015-Jun-27 23:34N 40°40' W 074°01'0 0.0
2015-Jun-27 22:34N 40°40' W 074°01'0 0.0
2015-Jun-27 21:34N 40°40' W 074°01'0 0.0
2015-Jun-27 20:34N 40°40' W 074°01'0 0.0
2015-Jun-27 19:33N 40°40' W 074°01'0 0.0
2015-Jun-27 18:34N 40°40' W 074°01'0 0.0
2015-Jun-27 17:34N 40°40' W 074°01'0 0.0
2015-Jun-27 16:34N 40°40' W 074°01'0 0.0
2015-Jun-27 15:34N 40°40' W 074°01'0 0.1
2015-Jun-27 14:34N 40°40' W 074°01'0 0.0
2015-Jun-27 13:33N 40°40' W 074°01'0 0.0
2015-Jun-27 12:34N 40°40' W 074°01'0 0.1
2015-Jun-27 11:34N 40°40' W 074°01'0 0.0
2015-Jun-27 10:33N 40°40' W 074°01'0 0.0
2015-Jun-27 09:34N 40°40' W 074°01'0 0.0
2015-Jun-27 08:33N 40°40' W 074°01'0 0.0
2015-Jun-27 07:33N 40°40' W 074°01'0 0.0
2015-Jun-27 06:33N 40°40' W 074°01'0 0.0
2015-Jun-27 05:33N 40°40' W 074°01'0 0.0
2015-Jun-27 04:34N 40°40' W 074°01'0 0.0
2015-Jun-27 03:34N 40°40' W 074°01'0 0.0
2015-Jun-27 02:34N 40°40' W 074°01'0 0.0
2015-Jun-27 01:34N 40°40' W 074°01'0 0.0
2015-Jun-27 00:34N 40°40' W 074°01'0 0.0
2015-Jun-26 23:34N 40°40' W 074°01'0 0.0
2015-Jun-26 22:34N 40°40' W 074°01'0 0.0
2015-Jun-26 21:34N 40°40' W 074°01'5 5.1
2015-Jun-26 20:33N 40°39' W 074°07'0 0.2
2015-Jun-26 19:34N 40°38' W 074°08'0 0.0
2015-Jun-26 18:34N 40°38' W 074°08'0 0.0
2015-Jun-26 17:33N 40°38' W 074°08'0 0.0
2015-Jun-26 16:33N 40°38' W 074°08'0 0.0
2015-Jun-26 15:33N 40°38' W 074°08'1 0.7
2015-Jun-26 14:34N 40°39' W 074°07'1 0.7
2015-Jun-26 13:33N 40°38' W 074°08'0 0.0
2015-Jun-26 12:32N 40°38' W 074°08'0 0.0
2015-Jun-26 11:19N 40°38' W 074°08'0 0.0
2015-Jun-26 10:33N 40°38' W 074°08'0 0.0
2015-Jun-26 09:33N 40°38' W 074°08'0 0.0
2015-Jun-26 08:22N 40°38' W 074°08'0 0.0
2015-Jun-26 07:20N 40°38' W 074°08'0 0.0
2015-Jun-26 06:27N 40°38' W 074°08'0 0.0
2015-Jun-26 05:19N 40°38' W 074°08'0 0.0
2015-Jun-26 02:34N 40°38' W 074°08'5 5.3
2015-Jun-26 01:34N 40°40' W 074°01'0 0.0
2015-Jun-26 00:34N 40°40' W 074°01'  

Dump ship's entire track history